createdAt,value
2023-07-11T00:01:27.557Z,70.82
2023-07-11T00:03:55.887Z,71.08
2023-07-11T00:06:24.345Z,71.58
2023-07-11T00:08:52.600Z,71.44
2023-07-11T00:11:20.897Z,72.00
2023-07-11T00:13:52.027Z,73.08
2023-07-11T00:16:21.225Z,72.67
2023-07-11T00:18:49.697Z,71.90
2023-07-11T00:21:18.394Z,71.21
2023-07-11T00:23:46.767Z,71.41
2023-07-11T00:26:15.140Z,72.41
2023-07-11T00:28:43.622Z,71.83
2023-07-11T00:31:11.863Z,71.41
2023-07-11T00:33:40.187Z,70.96
2023-07-11T00:36:09.651Z,70.78
2023-07-11T00:38:38.368Z,71.18
2023-07-11T00:41:09.255Z,70.73
2023-07-11T00:43:37.784Z,70.89
2023-07-11T00:46:15.750Z,71.73
2023-07-11T00:48:50.704Z,72.21
2023-07-11T00:51:26.176Z,72.20
2023-07-11T00:53:55.206Z,71.29
2023-07-11T00:56:26.319Z,69.68
2023-07-11T00:58:55.317Z,68.88
2023-07-11T01:01:25.698Z,69.57
2023-07-11T01:03:55.645Z,69.35
2023-07-11T01:06:29.969Z,69.22
2023-07-11T01:09:00.528Z,69.73
2023-07-11T01:11:32.485Z,70.46
2023-07-11T01:14:00.964Z,69.91
2023-07-11T01:16:29.310Z,69.53
2023-07-11T01:18:57.496Z,69.81
2023-07-11T01:21:25.547Z,69.78
2023-07-11T01:23:55.224Z,70.75
2023-07-11T01:26:23.535Z,70.40
2023-07-11T01:28:51.859Z,70.47
2023-07-11T01:31:20.345Z,69.96
2023-07-11T01:33:48.981Z,69.48
2023-07-11T01:36:17.153Z,69.37
2023-07-11T01:38:45.321Z,69.45
2023-07-11T01:41:13.431Z,71.50
2023-07-11T01:43:41.984Z,72.01
2023-07-11T01:46:10.276Z,71.29
2023-07-11T01:48:38.743Z,71.21
2023-07-11T01:51:06.907Z,72.45
2023-07-11T01:53:35.193Z,73.70
2023-07-11T01:56:05.229Z,73.93
2023-07-11T01:58:34.709Z,74.57
2023-07-11T02:01:02.978Z,74.03
2023-07-11T02:03:31.378Z,73.44
2023-07-11T02:05:59.945Z,72.95
2023-07-11T02:08:28.043Z,72.69
2023-07-11T02:10:56.290Z,72.10
2023-07-11T02:13:24.388Z,71.25
2023-07-11T02:15:52.828Z,70.12
2023-07-11T02:18:21.598Z,69.74
2023-07-11T02:20:50.317Z,68.44
2023-07-11T02:23:18.636Z,68.04
2023-07-11T02:25:46.682Z,67.36
2023-07-11T02:28:14.940Z,66.96
2023-07-11T02:30:43.957Z,66.43
2023-07-11T02:33:12.262Z,67.10
2023-07-11T02:35:40.797Z,65.94
2023-07-11T02:38:09.072Z,65.88
2023-07-11T02:40:37.367Z,65.54
2023-07-11T02:43:05.521Z,65.06
2023-07-11T02:45:33.695Z,64.84
2023-07-11T02:48:02.210Z,63.87
2023-07-11T02:50:30.870Z,63.63
2023-07-11T02:52:59.332Z,63.82
2023-07-11T02:55:27.729Z,64.30
2023-07-11T02:57:56.199Z,64.35
2023-07-11T03:00:24.400Z,64.46
2023-07-11T03:02:52.911Z,64.70
2023-07-11T03:05:21.833Z,65.06
2023-07-11T03:07:50.643Z,64.10
2023-07-11T03:10:18.824Z,63.17
2023-07-11T03:12:47.085Z,62.24
2023-07-11T03:15:15.265Z,62.68
2023-07-11T03:17:44.191Z,62.72
2023-07-11T03:20:12.861Z,62.85
2023-07-11T03:22:41.113Z,62.99
2023-07-11T03:25:09.650Z,63.66
2023-07-11T03:27:37.871Z,64.03
2023-07-11T03:30:06.981Z,63.75
2023-07-11T03:32:35.361Z,63.63
2023-07-11T03:35:04.553Z,63.83
2023-07-11T03:37:32.722Z,63.46
2023-07-11T03:40:01.609Z,63.62
2023-07-11T03:42:29.940Z,63.37
2023-07-11T03:44:58.264Z,63.56
2023-07-11T03:47:26.598Z,63.72
2023-07-11T03:49:54.819Z,63.93
2023-07-11T03:52:24.122Z,64.48
2023-07-11T03:54:52.396Z,65.02
2023-07-11T03:57:20.987Z,64.88
2023-07-11T03:59:49.236Z,64.88
2023-07-11T04:02:17.953Z,64.40
2023-07-11T04:04:46.444Z,64.17
2023-07-11T04:07:14.694Z,63.66
2023-07-11T04:09:43.919Z,63.34
2023-07-11T04:12:12.280Z,62.96
2023-07-11T04:14:40.773Z,62.43
2023-07-11T04:17:10.255Z,62.00
2023-07-11T04:19:38.421Z,61.38
2023-07-11T04:22:06.599Z,60.96
2023-07-11T04:24:35.087Z,59.98
2023-07-11T04:27:03.862Z,59.11
2023-07-11T04:29:32.140Z,58.78
2023-07-11T04:32:00.416Z,59.81
2023-07-11T04:34:28.692Z,59.55
2023-07-11T04:36:56.869Z,59.70
2023-07-11T04:39:25.061Z,60.19
2023-07-11T04:41:53.425Z,60.09
2023-07-11T04:44:21.691Z,59.57
2023-07-11T04:46:50.001Z,59.17
2023-07-11T04:49:18.250Z,58.86
2023-07-11T04:51:46.412Z,58.46
2023-07-11T04:54:14.596Z,58.21
2023-07-11T04:56:42.868Z,58.11
2023-07-11T04:59:11.039Z,58.07
2023-07-11T05:01:39.264Z,57.97
2023-07-11T05:04:07.750Z,56.63
2023-07-11T05:06:35.988Z,55.28
2023-07-11T05:09:04.459Z,55.26
2023-07-11T05:11:32.634Z,54.92
2023-07-11T05:14:00.927Z,54.53
2023-07-11T05:16:30.752Z,53.83
2023-07-11T05:19:00.118Z,52.64
2023-07-11T05:21:28.935Z,52.70
2023-07-11T05:23:57.184Z,51.92
2023-07-11T05:26:25.457Z,51.53
2023-07-11T05:28:53.738Z,50.08
2023-07-11T05:31:22.335Z,49.44
2023-07-11T05:33:53.475Z,49.50
2023-07-11T05:36:35.952Z,46.73
2023-07-11T05:39:08.648Z,47.33
2023-07-11T05:41:38.870Z,46.68
2023-07-11T05:44:06.886Z,45.78
2023-07-11T05:46:35.053Z,45.66
2023-07-11T05:49:04.627Z,44.03
2023-07-11T05:51:33.111Z,44.65
2023-07-11T05:54:02.097Z,42.64
2023-07-11T05:56:30.491Z,42.55
2023-07-11T05:58:59.180Z,41.59
2023-07-11T06:01:30.309Z,41.55
2023-07-11T06:04:13.927Z,40.18
2023-07-11T06:06:43.548Z,39.52
2023-07-11T06:09:20.291Z,38.80
2023-07-11T06:11:50.522Z,38.45
2023-07-11T06:14:19.800Z,38.21
2023-07-11T06:16:51.165Z,36.12
2023-07-11T06:19:20.504Z,36.55
2023-07-11T06:21:48.778Z,35.37
2023-07-11T06:24:17.039Z,34.94
2023-07-11T06:26:45.324Z,34.83
2023-07-11T06:29:14.929Z,33.89
2023-07-11T06:31:45.070Z,33.66
2023-07-11T06:34:13.322Z,32.90
2023-07-11T06:36:41.498Z,32.55
2023-07-11T06:39:09.980Z,31.63
2023-07-11T06:41:39.788Z,31.41
2023-07-11T06:44:09.682Z,29.82
2023-07-11T06:46:38.017Z,28.23
2023-07-11T06:49:06.264Z,27.95
2023-07-11T06:51:34.948Z,26.68
2023-07-11T06:54:03.720Z,28.14
2023-07-11T06:56:34.438Z,26.97
2023-07-11T06:59:03.005Z,26.89
2023-07-11T07:01:38.221Z,27.24
2023-07-11T07:04:07.494Z,26.53
2023-07-11T07:06:37.016Z,26.16
2023-07-11T07:09:06.134Z,25.96
2023-07-11T07:11:36.982Z,26.09
2023-07-11T07:14:07.787Z,25.17
2023-07-11T07:16:40.578Z,25.56
2023-07-11T07:19:11.903Z,25.33
2023-07-11T07:21:40.581Z,25.31
2023-07-11T07:24:09.152Z,25.19
2023-07-11T07:26:37.430Z,25.67
2023-07-11T07:29:05.808Z,26.69
2023-07-11T07:31:33.928Z,26.85
2023-07-11T07:34:02.562Z,27.22
2023-07-11T07:36:30.655Z,27.74
2023-07-11T07:38:58.920Z,27.66
2023-07-11T07:41:28.317Z,27.08
2023-07-11T07:43:56.907Z,27.00
2023-07-11T07:46:25.232Z,26.44
2023-07-11T07:48:53.484Z,27.07
2023-07-11T07:51:22.156Z,27.31
2023-07-11T07:53:50.421Z,26.99
2023-07-11T07:56:22.019Z,26.70
2023-07-11T07:58:50.552Z,26.24
2023-07-11T08:01:20.473Z,26.47
2023-07-11T08:03:49.586Z,26.82
2023-07-11T08:06:18.905Z,26.28
2023-07-11T08:08:48.413Z,26.44
2023-07-11T08:11:19.049Z,26.68
2023-07-11T08:13:59.240Z,26.29
2023-07-11T08:16:33.727Z,25.23
2023-07-11T08:19:07.377Z,24.67
2023-07-11T08:21:37.533Z,24.92
2023-07-11T08:24:08.476Z,25.15
2023-07-11T08:26:37.255Z,24.68
2023-07-11T08:29:13.127Z,24.45
2023-07-11T08:31:48.498Z,24.61
2023-07-11T08:34:16.931Z,24.24
2023-07-11T08:36:47.773Z,24.13
2023-07-11T08:39:16.036Z,23.46
2023-07-11T08:41:49.988Z,22.91
2023-07-11T08:44:22.928Z,23.47
2023-07-11T08:47:02.229Z,23.05
2023-07-11T08:49:41.063Z,23.21
2023-07-11T08:52:10.929Z,23.58
2023-07-11T08:55:14.072Z,24.14
2023-07-11T08:57:48.740Z,24.58
2023-07-11T09:00:19.089Z,24.30
2023-07-11T09:03:11.613Z,23.93
2023-07-11T09:06:09.624Z,23.63
2023-07-11T09:08:43.196Z,24.10
2023-07-11T09:11:17.760Z,24.60
2023-07-11T09:14:21.526Z,24.63
2023-07-11T09:17:02.570Z,26.07
2023-07-11T09:19:55.021Z,25.66
2023-07-11T09:22:49.729Z,24.27
2023-07-11T09:25:22.914Z,24.05
2023-07-11T09:28:03.147Z,23.65
2023-07-11T09:30:49.951Z,22.54
2023-07-11T09:33:22.213Z,22.47
2023-07-11T09:35:52.686Z,22.03
2023-07-11T09:38:26.449Z,22.30
2023-07-11T09:41:11.932Z,22.32
2023-07-11T09:43:40.022Z,22.53
2023-07-11T09:46:16.776Z,22.38
2023-07-11T09:48:49.578Z,22.14
2023-07-11T09:51:38.227Z,22.08
2023-07-11T09:54:24.741Z,22.08
2023-07-11T09:56:53.905Z,22.76
2023-07-11T09:59:22.103Z,22.80
2023-07-11T10:01:56.097Z,22.68
2023-07-11T10:04:26.525Z,22.52
2023-07-11T10:07:02.745Z,22.57
2023-07-11T10:09:34.252Z,22.06
2023-07-11T10:12:05.440Z,21.54
2023-07-11T10:14:37.328Z,21.98
2023-07-11T10:17:20.557Z,22.20
2023-07-11T10:19:53.401Z,22.75
2023-07-11T10:22:32.637Z,23.25
2023-07-11T10:25:23.326Z,23.20
2023-07-11T10:28:22.615Z,22.89
2023-07-11T10:30:51.591Z,24.14
2023-07-11T10:33:33.498Z,24.88
2023-07-11T10:36:11.600Z,24.48
2023-07-11T10:38:58.427Z,24.11
2023-07-11T10:41:40.193Z,24.53
2023-07-11T10:44:18.109Z,23.86
2023-07-11T10:46:53.204Z,23.62
2023-07-11T10:49:38.189Z,24.06
2023-07-11T10:52:13.774Z,24.28
2023-07-11T10:55:17.868Z,24.55
2023-07-11T10:57:54.008Z,24.77
2023-07-11T11:00:25.568Z,25.33
2023-07-11T11:03:21.706Z,24.83
2023-07-11T11:05:58.363Z,25.59
2023-07-11T11:08:34.561Z,25.15
2023-07-11T11:11:35.371Z,24.84
2023-07-11T11:14:11.756Z,25.02
2023-07-11T11:16:46.075Z,26.17
2023-07-11T11:19:26.815Z,25.90
2023-07-11T11:22:11.788Z,26.99
2023-07-11T11:25:02.245Z,27.96
2023-07-11T11:28:00.262Z,29.68
2023-07-11T11:30:47.135Z,29.65
2023-07-11T11:33:18.112Z,28.64
2023-07-11T11:36:10.403Z,28.76
2023-07-11T11:38:45.278Z,28.14
2023-07-11T11:41:17.434Z,28.77
2023-07-11T11:51:30.765Z,33.52
2023-07-11T11:54:19.493Z,35.38
2023-07-11T11:56:53.703Z,36.05
2023-07-11T11:59:25.973Z,36.15
2023-07-11T12:01:54.491Z,37.82
2023-07-11T12:04:35.340Z,40.26
2023-07-11T12:07:16.288Z,41.85
2023-07-11T12:09:49.187Z,42.11
2023-07-11T12:12:40.694Z,41.60
2023-07-11T12:15:12.253Z,41.28
2023-07-11T12:17:40.698Z,42.05
2023-07-11T12:20:09.455Z,43.99
2023-07-11T12:22:37.904Z,44.64
2023-07-11T12:25:07.592Z,45.17
2023-07-11T12:27:35.998Z,45.28
2023-07-11T12:30:40.509Z,46.16
2023-07-11T12:33:33.891Z,47.12
2023-07-11T12:36:07.828Z,48.41
2023-07-11T12:38:46.716Z,49.08
2023-07-11T12:41:44.595Z,49.29
2023-07-11T12:44:16.885Z,49.69
2023-07-11T12:46:47.536Z,49.25
2023-07-11T12:49:37.262Z,47.75
2023-07-11T12:52:10.090Z,46.27
2023-07-11T12:54:38.549Z,46.37
2023-07-11T12:57:14.911Z,45.10
2023-07-11T12:59:43.174Z,45.05
2023-07-11T13:02:15.434Z,45.86
2023-07-11T13:04:58.402Z,46.61
2023-07-11T13:07:32.446Z,46.02
2023-07-11T13:10:02.338Z,45.50
2023-07-11T13:12:37.306Z,45.47
2023-07-11T13:15:06.837Z,45.05
2023-07-11T13:17:35.123Z,43.71
2023-07-11T13:20:04.020Z,43.42
2023-07-11T13:22:32.474Z,44.07
2023-07-11T13:25:02.175Z,44.07
2023-07-11T13:27:35.267Z,44.33
2023-07-11T13:30:03.758Z,44.91
2023-07-11T13:32:32.149Z,45.62
2023-07-11T13:37:48.560Z,47.56
2023-07-11T13:40:37.837Z,48.26
2023-07-11T13:43:21.432Z,48.83
2023-07-11T13:45:51.950Z,48.43
2023-07-11T13:48:24.314Z,47.85
2023-07-11T13:51:18.286Z,47.85
2023-07-11T13:53:53.925Z,47.93
2023-07-11T13:56:22.917Z,47.49
2023-07-11T13:58:54.132Z,47.45
2023-07-11T14:01:26.802Z,48.00
2023-07-11T14:03:56.882Z,49.38
2023-07-11T14:06:25.298Z,50.75
2023-07-11T14:08:53.982Z,51.54
2023-07-11T14:11:31.268Z,52.27
2023-07-11T14:13:59.595Z,52.76
2023-07-11T14:16:28.932Z,53.08
2023-07-11T14:18:57.233Z,57.66
2023-07-11T14:21:26.039Z,59.99
2023-07-11T14:23:54.121Z,62.48
2023-07-11T14:26:23.088Z,65.37
2023-07-11T14:28:53.095Z,67.34
2023-07-11T14:31:23.242Z,67.49
2023-07-11T14:33:51.596Z,68.77
2023-07-11T14:36:19.893Z,69.14
2023-07-11T14:38:48.044Z,70.28
2023-07-11T14:41:16.208Z,72.07
2023-07-11T14:43:44.389Z,72.78
2023-07-11T14:46:12.668Z,73.02
2023-07-11T14:48:40.841Z,73.84
2023-07-11T14:51:11.241Z,73.96
2023-07-11T14:53:43.645Z,74.01
2023-07-11T14:58:51.642Z,75.60
2023-07-11T15:01:19.904Z,75.99
2023-07-11T15:16:29.957Z,73.67
2023-07-11T15:18:58.207Z,73.64
2023-07-11T15:21:26.633Z,74.36
2023-07-11T15:23:54.999Z,74.61
2023-07-11T15:26:25.995Z,74.20
2023-07-11T15:28:54.940Z,73.58
2023-07-11T15:31:23.238Z,73.31
2023-07-11T15:33:52.179Z,72.78
2023-07-11T15:36:20.600Z,72.23
2023-07-11T15:38:48.748Z,71.69
2023-07-11T15:41:18.994Z,71.23
2023-07-11T15:43:47.255Z,70.88
2023-07-11T15:46:22.394Z,69.55
2023-07-11T15:48:54.415Z,68.28
2023-07-11T15:51:22.846Z,68.31
2023-07-11T15:53:52.086Z,69.43
2023-07-11T15:56:20.405Z,70.00
2023-07-11T15:58:48.788Z,69.64
2023-07-11T16:01:16.962Z,67.88
2023-07-11T16:03:45.306Z,67.02
2023-07-11T16:06:17.889Z,65.80
2023-07-11T16:08:46.403Z,64.16
2023-07-11T16:11:15.507Z,63.67
2023-07-11T16:13:46.020Z,63.97
2023-07-11T16:16:19.409Z,63.74
2023-07-11T16:18:48.036Z,63.99
2023-07-11T16:21:17.094Z,64.30
2023-07-11T16:23:45.297Z,64.60
2023-07-11T16:26:22.970Z,65.66
2023-07-11T16:28:52.380Z,65.57
2023-07-11T16:31:20.699Z,65.48
2023-07-11T16:33:48.919Z,65.83
2023-07-11T16:36:17.520Z,66.07
2023-07-11T16:38:45.788Z,66.58
2023-07-11T16:41:13.970Z,67.05
2023-07-11T16:43:42.328Z,67.40
2023-07-11T16:46:18.999Z,67.46
2023-07-11T16:48:47.909Z,67.86
2023-07-11T16:51:23.133Z,68.03
2023-07-11T16:53:51.512Z,68.21
2023-07-11T16:56:20.006Z,68.75
2023-07-11T16:58:49.298Z,69.38
2023-07-11T17:01:20.476Z,69.79
2023-07-11T17:03:49.015Z,69.79
2023-07-11T17:06:25.819Z,69.97
2023-07-11T17:08:55.343Z,69.77
2023-07-11T17:11:24.089Z,69.95
2023-07-11T17:13:52.473Z,69.94
2023-07-11T17:16:25.771Z,69.86
2023-07-11T17:18:54.126Z,69.50
2023-07-11T17:21:22.727Z,69.53
2023-07-11T17:23:50.816Z,69.48
2023-07-11T17:26:19.172Z,69.73
2023-07-11T17:28:47.444Z,69.93
2023-07-11T17:31:16.206Z,70.05
2023-07-11T17:33:44.717Z,70.54
2023-07-11T17:36:14.959Z,71.12
2023-07-11T17:38:43.633Z,71.53
2023-07-11T17:41:12.003Z,71.67
2023-07-11T17:43:42.060Z,72.01
2023-07-11T17:46:39.283Z,72.17
2023-07-11T17:49:04.777Z,72.59
2023-07-11T17:51:34.056Z,72.72
2023-07-11T17:54:02.983Z,73.40
2023-07-11T17:56:47.492Z,73.78
2023-07-11T17:59:19.498Z,74.12
2023-07-11T18:01:48.060Z,74.95
2023-07-11T18:04:17.046Z,74.94
2023-07-11T18:06:45.863Z,74.94
2023-07-11T18:09:14.141Z,75.17
2023-07-11T18:11:42.514Z,75.60
2023-07-11T18:14:10.796Z,75.88
2023-07-11T18:16:39.108Z,75.88
2023-07-11T18:19:10.211Z,76.28
2023-07-11T18:21:38.792Z,76.40
2023-07-11T18:24:07.172Z,76.72
2023-07-11T18:26:35.446Z,77.24
2023-07-11T18:29:03.727Z,77.44
2023-07-11T18:31:32.030Z,78.17
2023-07-11T18:34:00.384Z,78.02
2023-07-11T18:36:29.065Z,78.03
2023-07-11T18:38:57.557Z,78.19
2023-07-11T18:41:27.619Z,78.37
2023-07-11T18:43:56.275Z,78.11
2023-07-11T18:46:25.078Z,77.67
2023-07-11T18:48:53.316Z,77.82
2023-07-11T18:51:22.202Z,77.76
2023-07-11T18:53:50.481Z,77.69
2023-07-11T18:56:23.358Z,77.94
2023-07-11T18:58:51.644Z,77.85
2023-07-11T19:01:20.165Z,77.79
2023-07-11T19:03:48.642Z,78.07
2023-07-11T19:06:18.606Z,78.22
2023-07-11T19:08:48.980Z,78.49
2023-07-11T19:11:18.816Z,78.44
2023-07-11T19:13:47.646Z,78.93
2023-07-11T19:16:23.242Z,78.97
2023-07-11T19:18:51.778Z,78.68
2023-07-11T19:21:20.268Z,79.23
2023-07-11T19:23:49.046Z,79.77
2023-07-11T19:26:20.295Z,80.76
2023-07-11T19:28:48.570Z,80.93
2023-07-11T19:31:17.325Z,81.26
2023-07-11T19:33:45.849Z,80.91
2023-07-11T19:36:18.499Z,80.58
2023-07-11T19:38:46.886Z,80.43
2023-07-11T19:41:18.269Z,82.69
2023-07-11T19:43:47.741Z,82.50
2023-07-11T19:46:19.296Z,81.58
2023-07-11T19:48:48.028Z,81.17
2023-07-11T19:51:16.564Z,80.85
2023-07-11T19:53:45.056Z,80.92
2023-07-11T19:56:23.120Z,81.31
2023-07-11T19:58:52.257Z,81.67
2023-07-11T20:01:21.130Z,81.02
2023-07-11T20:03:51.757Z,80.90
2023-07-11T20:06:24.749Z,82.24
2023-07-11T20:08:54.084Z,83.51
2023-07-11T20:11:22.436Z,83.56
2023-07-11T20:13:50.916Z,83.47
2023-07-11T20:16:24.953Z,82.82
2023-07-11T20:18:54.350Z,83.38
2023-07-11T20:21:25.226Z,84.38
2023-07-11T20:23:54.363Z,84.22
2023-07-11T20:26:28.446Z,84.15
2023-07-11T20:29:00.556Z,83.49
2023-07-11T20:31:28.954Z,83.67
2023-07-11T20:33:57.809Z,83.71
2023-07-11T20:36:29.772Z,84.38
2023-07-11T20:38:59.075Z,83.74
2023-07-11T20:41:28.204Z,83.65
2023-07-11T20:44:00.905Z,83.79
2023-07-11T20:46:30.016Z,84.15
2023-07-11T20:49:01.566Z,84.14
2023-07-11T20:51:30.830Z,83.97
2023-07-11T20:53:59.327Z,83.09
2023-07-11T20:56:28.578Z,82.28
2023-07-11T20:58:56.868Z,81.68
2023-07-11T21:01:26.280Z,80.62
2023-07-11T21:03:54.646Z,80.07
2023-07-11T21:06:32.264Z,79.80
2023-07-11T21:09:02.471Z,79.39
2023-07-11T21:11:30.730Z,79.08
2023-07-11T21:13:59.310Z,79.09
2023-07-11T21:16:32.772Z,79.02
2023-07-11T21:19:04.816Z,79.14
2023-07-11T21:21:35.411Z,78.92
2023-07-11T21:24:04.080Z,78.91
2023-07-11T21:26:35.699Z,78.82
2023-07-11T21:29:05.147Z,78.60
2023-07-11T21:31:33.740Z,78.93
2023-07-11T21:34:02.867Z,79.06
2023-07-11T21:36:34.251Z,78.73
2023-07-11T21:39:04.485Z,78.70
2023-07-11T21:41:32.771Z,78.65
2023-07-11T21:44:00.756Z,78.97
2023-07-11T21:46:32.179Z,79.13
2023-07-11T21:49:01.643Z,79.46
2023-07-11T21:51:32.600Z,79.19
2023-07-11T21:54:01.124Z,78.82
2023-07-11T21:56:31.104Z,79.31
2023-07-11T21:59:02.629Z,79.23
2023-07-11T22:01:31.777Z,79.35
2023-07-11T22:04:02.057Z,79.83
2023-07-11T22:06:35.386Z,79.70
2023-07-11T22:09:04.290Z,79.42
2023-07-11T22:11:32.462Z,80.21
2023-07-11T22:14:00.663Z,79.33
2023-07-11T22:16:30.610Z,79.22
2023-07-11T22:18:59.395Z,79.80
2023-07-11T22:21:28.225Z,79.68
2023-07-11T22:23:59.119Z,80.40
2023-07-11T22:26:31.571Z,80.13
2023-07-11T22:29:02.863Z,80.32
2023-07-11T22:31:32.286Z,80.50
2023-07-11T22:34:01.000Z,80.51
2023-07-11T22:36:29.455Z,80.32
2023-07-11T22:38:57.660Z,80.82
2023-07-11T22:41:25.941Z,81.21
2023-07-11T22:43:54.018Z,80.89
2023-07-11T22:46:22.653Z,80.48
2023-07-11T22:48:52.165Z,80.57
2023-07-11T22:51:20.662Z,80.47
2023-07-11T22:53:49.567Z,80.20
2023-07-11T22:56:23.979Z,79.76
2023-07-11T22:58:53.779Z,79.66
2023-07-11T23:01:23.084Z,79.23
2023-07-11T23:03:51.861Z,78.97
2023-07-11T23:06:27.475Z,78.61
2023-07-11T23:08:56.892Z,79.06
2023-07-11T23:11:26.440Z,80.09
2023-07-11T23:13:54.792Z,80.59
2023-07-11T23:16:31.325Z,80.76
2023-07-11T23:19:06.258Z,80.47
2023-07-11T23:21:35.297Z,80.40
2023-07-11T23:24:03.670Z,80.88
2023-07-11T23:26:31.844Z,81.00
2023-07-11T23:29:00.027Z,81.44
2023-07-11T23:31:28.493Z,80.93
2023-07-11T23:33:57.177Z,81.17
2023-07-11T23:36:27.015Z,80.96
2023-07-11T23:38:56.637Z,80.89
2023-07-11T23:41:25.077Z,80.25
2023-07-11T23:43:53.619Z,79.88
2023-07-11T23:46:27.991Z,79.98
2023-07-11T23:48:57.726Z,79.61
2023-07-11T23:51:29.115Z,79.40
2023-07-11T23:53:58.445Z,79.24
2023-07-11T23:56:28.474Z,79.14
2023-07-11T23:58:57.262Z,79.38
